createdAt,value
2023-04-07T00:01:54.973Z,9.40
2023-04-07T00:04:40.904Z,9.20
2023-04-07T00:10:17.911Z,9.10
2023-04-07T00:13:04.342Z,9.20
2023-04-07T00:15:50.045Z,9.20
2023-04-07T00:18:36.141Z,9.30
2023-04-07T00:21:22.179Z,9.30
2023-04-07T00:24:08.518Z,8.90
2023-04-07T00:27:10.590Z,8.80
2023-04-07T00:30:01.185Z,8.90
2023-04-07T00:32:51.850Z,9.00
2023-04-07T00:35:38.010Z,9.10
2023-04-07T00:38:24.257Z,9.20
2023-04-07T00:41:12.086Z,9.20
2023-04-07T00:43:58.498Z,9.20
2023-04-07T00:46:48.061Z,8.90
2023-04-07T00:49:41.713Z,8.80
2023-04-07T00:52:30.228Z,8.90
2023-04-07T00:55:17.038Z,8.80
2023-04-07T00:58:05.339Z,9.10
2023-04-07T01:01:16.762Z,9.20
2023-04-07T01:04:56.728Z,9.10
2023-04-07T01:07:55.105Z,9.10
2023-04-07T01:11:20.182Z,8.90
2023-04-07T01:14:11.507Z,8.70
2023-04-07T01:17:07.135Z,8.70
2023-04-07T01:19:59.535Z,8.60
2023-04-07T01:22:56.608Z,8.70
2023-04-07T01:26:17.331Z,8.70
2023-04-07T01:29:13.963Z,8.90
2023-04-07T01:32:08.694Z,8.90
2023-04-07T01:34:57.935Z,8.80
2023-04-07T01:38:07.605Z,8.70
2023-04-07T01:40:55.975Z,8.80
2023-04-07T01:43:45.128Z,8.70
2023-04-07T01:46:46.653Z,8.70
2023-04-07T01:49:36.160Z,8.60
2023-04-07T01:52:22.675Z,8.50
2023-04-07T01:55:10.369Z,8.40
2023-04-07T01:58:07.069Z,8.60
2023-04-07T02:00:57.480Z,8.50
2023-04-07T02:03:54.360Z,8.50
2023-04-07T02:07:04.419Z,8.40
2023-04-07T02:09:59.382Z,8.30
2023-04-07T02:12:48.722Z,8.40
2023-04-07T02:15:46.540Z,8.40
2023-04-07T02:18:33.795Z,8.50
2023-04-07T02:21:25.196Z,8.30
2023-04-07T02:24:12.866Z,8.10
2023-04-07T02:27:00.882Z,8.20
2023-04-07T02:29:48.438Z,8.20
2023-04-07T02:32:36.109Z,8.40
2023-04-07T02:35:22.408Z,8.30
2023-04-07T02:38:08.274Z,8.40
2023-04-07T02:41:05.009Z,8.30
2023-04-07T02:43:52.839Z,8.30
2023-04-07T02:46:48.076Z,8.50
2023-04-07T02:52:49.104Z,8.10
2023-04-07T02:55:37.783Z,8.00
2023-04-07T02:58:27.659Z,8.10
2023-04-07T03:01:56.596Z,7.80
2023-04-07T03:05:05.386Z,7.60
2023-04-07T03:07:59.440Z,6.90
2023-04-07T03:10:58.302Z,7.10
2023-04-07T03:13:53.876Z,7.40
2023-04-07T03:16:54.236Z,7.90
2023-04-07T03:20:05.341Z,8.00
2023-04-07T03:22:55.821Z,8.10
2023-04-07T03:25:49.735Z,8.30
2023-04-07T03:28:36.645Z,8.80
2023-04-07T03:31:32.032Z,8.30
2023-04-07T03:34:31.961Z,8.40
2023-04-07T03:37:23.281Z,8.40
2023-04-07T03:40:26.401Z,8.40
2023-04-07T03:43:28.872Z,8.30
2023-04-07T03:46:18.250Z,8.10
2023-04-07T03:49:10.286Z,7.90
2023-04-07T03:55:03.708Z,7.70
2023-04-07T03:57:54.288Z,7.80
2023-04-07T04:00:41.240Z,7.80
2023-04-07T04:03:30.585Z,7.20
2023-04-07T04:06:28.650Z,7.00
2023-04-07T04:09:26.268Z,6.80
2023-04-07T04:12:13.127Z,6.70
2023-04-07T04:15:08.136Z,6.80
2023-04-07T04:21:05.850Z,6.60
2023-04-07T04:24:06.872Z,6.80
2023-04-07T04:26:53.924Z,6.60
2023-04-07T04:29:40.312Z,6.60
2023-04-07T04:32:29.755Z,7.10
2023-04-07T04:35:16.676Z,6.90
2023-04-07T04:38:23.448Z,7.00
2023-04-07T04:41:33.397Z,6.70
2023-04-07T04:44:20.715Z,6.60
2023-04-07T04:47:09.813Z,6.70
2023-04-07T04:49:59.978Z,6.70
2023-04-07T04:52:46.987Z,6.60
2023-04-07T04:55:46.538Z,6.50
2023-04-07T04:58:46.801Z,6.50
2023-04-07T05:01:45.592Z,6.60
2023-04-07T05:04:37.163Z,6.90
2023-04-07T05:07:45.843Z,7.10
2023-04-07T05:10:39.970Z,7.10
2023-04-07T05:13:37.421Z,6.80
2023-04-07T05:16:24.795Z,6.70
2023-04-07T05:19:11.596Z,7.00
2023-04-07T05:21:57.230Z,7.30
2023-04-07T05:24:44.337Z,7.60
2023-04-07T05:27:30.078Z,7.70
2023-04-07T05:30:21.494Z,7.90
2023-04-07T05:33:07.655Z,7.60
2023-04-07T05:36:10.949Z,7.30
2023-04-07T05:39:00.163Z,7.30
2023-04-07T05:41:46.335Z,7.40
2023-04-07T05:44:34.286Z,7.60
2023-04-07T05:47:20.444Z,7.60
2023-04-07T05:50:10.605Z,7.80
2023-04-07T05:52:57.710Z,7.90
2023-04-07T05:55:46.410Z,8.00
2023-04-07T05:58:41.577Z,8.00
2023-04-07T06:01:29.973Z,8.30
2023-04-07T06:04:17.141Z,8.40
2023-04-07T06:07:05.218Z,8.70
2023-04-07T06:09:51.085Z,8.90
2023-04-07T06:12:36.853Z,9.10
2023-04-07T06:15:24.102Z,9.20
2023-04-07T06:18:10.638Z,9.40
2023-04-07T06:20:57.202Z,9.40
2023-04-07T06:23:44.693Z,9.50
2023-04-07T06:26:32.136Z,9.70
2023-04-07T06:29:18.387Z,10.00
2023-04-07T06:32:05.082Z,10.20
2023-04-07T06:34:50.797Z,10.40
2023-04-07T06:37:37.228Z,10.40
2023-04-07T06:40:26.913Z,10.60
2023-04-07T06:43:13.050Z,10.80
2023-04-07T06:46:09.563Z,11.00
2023-04-07T06:48:55.649Z,11.30
2023-04-07T06:51:41.691Z,11.50
2023-04-07T06:54:27.883Z,11.70
2023-04-07T06:57:14.870Z,11.90
2023-04-07T07:00:00.631Z,12.10
2023-04-07T07:02:46.907Z,12.40
2023-04-07T07:05:33.054Z,12.50
2023-04-07T07:08:19.039Z,12.70
2023-04-07T07:11:04.949Z,12.70
2023-04-07T07:13:50.756Z,12.40
2023-04-07T07:16:37.297Z,12.60
2023-04-07T07:19:23.504Z,12.70
2023-04-07T07:22:10.119Z,12.50
2023-04-07T07:24:56.622Z,13.50
2023-04-07T07:27:42.381Z,12.10
2023-04-07T07:30:33.668Z,12.60
2023-04-07T07:33:19.567Z,13.20
2023-04-07T07:36:05.852Z,13.60
2023-04-07T07:38:52.209Z,13.80
2023-04-07T07:41:38.034Z,12.50
2023-04-07T07:44:24.234Z,12.60
2023-04-07T07:47:09.890Z,13.40
2023-04-07T07:49:56.378Z,13.60
2023-04-07T07:52:43.491Z,13.70
2023-04-07T07:55:29.616Z,13.50
2023-04-07T07:58:15.843Z,13.50
2023-04-07T08:01:01.623Z,13.70
2023-04-07T08:03:48.405Z,13.60
2023-04-07T08:06:34.674Z,13.50
2023-04-07T08:09:20.881Z,14.20
2023-04-07T08:12:07.118Z,14.10
2023-04-07T08:14:53.003Z,14.20
2023-04-07T08:17:39.130Z,14.70
2023-04-07T08:20:25.860Z,16.20
2023-04-07T08:23:14.661Z,18.00
2023-04-07T08:26:00.810Z,18.10
2023-04-07T08:28:46.796Z,17.50
2023-04-07T08:31:32.551Z,17.70
2023-04-07T08:34:20.832Z,17.20
2023-04-07T08:37:07.339Z,18.80
2023-04-07T08:39:53.627Z,19.50
2023-04-07T08:42:43.218Z,18.70
2023-04-07T08:45:30.499Z,20.20
2023-04-07T08:48:22.018Z,20.10
2023-04-07T08:51:10.638Z,20.00
2023-04-07T08:54:11.796Z,18.80
2023-04-07T08:56:57.748Z,18.80
2023-04-07T08:59:47.925Z,18.90
2023-04-07T09:02:35.841Z,17.90
2023-04-07T09:05:25.205Z,17.50
2023-04-07T09:08:11.369Z,17.20
2023-04-07T09:10:57.899Z,17.10
2023-04-07T09:13:44.280Z,16.80
2023-04-07T09:19:56.511Z,15.40
2023-04-07T09:22:46.733Z,15.40
2023-04-07T09:25:34.060Z,16.00
2023-04-07T09:28:23.374Z,16.90
2023-04-07T09:31:09.520Z,15.90
2023-04-07T09:33:55.843Z,15.40
2023-04-07T09:36:43.002Z,15.80
2023-04-07T09:39:29.079Z,15.60
2023-04-07T09:42:15.521Z,15.00
2023-04-07T09:45:02.077Z,15.30
2023-04-07T09:47:48.385Z,16.20
2023-04-07T09:50:41.645Z,16.30
2023-04-07T09:54:00.173Z,16.70
2023-04-07T09:56:46.241Z,17.50
2023-04-07T09:59:33.829Z,16.10
2023-04-07T10:02:20.541Z,15.60
2023-04-07T10:05:07.507Z,16.20
2023-04-07T10:07:55.397Z,17.20
2023-04-07T10:10:43.619Z,17.30
2023-04-07T10:13:34.737Z,17.00
2023-04-07T10:16:20.927Z,16.60
2023-04-07T10:19:08.327Z,16.30
2023-04-07T10:21:55.999Z,17.20
2023-04-07T10:25:06.474Z,18.10
2023-04-07T10:28:04.257Z,16.90
2023-04-07T10:30:52.210Z,17.30
2023-04-07T10:33:54.931Z,18.90
2023-04-07T10:37:17.861Z,19.20
2023-04-07T10:40:19.327Z,18.00
2023-04-07T10:43:11.689Z,17.70
2023-04-07T10:46:00.038Z,18.80
2023-04-07T10:49:14.049Z,19.50
2023-04-07T10:52:13.141Z,20.40
2023-04-07T10:55:31.895Z,21.30
2023-04-07T10:58:25.311Z,19.40
2023-04-07T11:01:12.043Z,21.30
2023-04-07T11:03:59.748Z,22.20
2023-04-07T11:06:49.220Z,19.60
2023-04-07T11:09:35.315Z,19.80
2023-04-07T11:12:25.099Z,18.10
2023-04-07T11:15:19.260Z,17.40
2023-04-07T11:18:21.927Z,17.00
2023-04-07T11:21:09.542Z,17.20
2023-04-07T11:23:55.931Z,16.90
2023-04-07T11:26:42.637Z,16.90
2023-04-07T11:29:32.195Z,17.30
2023-04-07T11:32:26.246Z,17.40
2023-04-07T11:35:12.603Z,16.70
2023-04-07T11:37:59.443Z,16.40
2023-04-07T11:40:45.531Z,16.30
2023-04-07T11:43:31.312Z,16.70
2023-04-07T11:46:19.171Z,17.50
2023-04-07T11:49:13.767Z,17.60
2023-04-07T11:52:03.314Z,17.30
2023-04-07T11:54:53.571Z,17.60
2023-04-07T11:57:39.729Z,18.00
2023-04-07T12:00:26.117Z,18.20
2023-04-07T12:03:16.735Z,17.70
2023-04-07T12:06:04.027Z,17.00
2023-04-07T12:08:49.986Z,17.20
2023-04-07T12:11:37.400Z,17.20
2023-04-07T12:14:23.685Z,16.80
2023-04-07T12:17:21.369Z,16.40
2023-04-07T12:20:08.184Z,16.60
2023-04-07T12:22:54.429Z,16.50
2023-04-07T12:25:40.450Z,16.20
2023-04-07T12:28:26.884Z,15.70
2023-04-07T12:31:12.951Z,15.60
2023-04-07T12:33:59.090Z,15.60
2023-04-07T12:36:45.087Z,16.30
2023-04-07T12:39:31.954Z,16.50
2023-04-07T12:42:17.970Z,16.30
2023-04-07T12:45:04.173Z,15.80
2023-04-07T12:47:50.499Z,15.70
2023-04-07T12:50:37.707Z,15.60
2023-04-07T12:53:23.699Z,15.20
2023-04-07T12:56:09.597Z,15.80
2023-04-07T12:58:55.699Z,16.30
2023-04-07T13:01:42.087Z,16.80
2023-04-07T13:04:30.484Z,17.00
2023-04-07T13:07:16.735Z,16.40
2023-04-07T13:10:03.208Z,16.90
2023-04-07T13:12:49.200Z,16.50
2023-04-07T13:15:35.407Z,16.40
2023-04-07T13:18:21.921Z,15.80
2023-04-07T13:21:30.565Z,15.60
2023-04-07T13:24:14.116Z,15.50
2023-04-07T13:26:59.828Z,15.90
2023-04-07T13:29:46.160Z,16.30
2023-04-07T13:32:32.426Z,16.10
2023-04-07T13:35:18.550Z,15.70
2023-04-07T13:38:04.986Z,15.60
2023-04-07T13:40:50.928Z,15.70
2023-04-07T13:43:37.432Z,15.80
2023-04-07T13:46:27.865Z,16.10
2023-04-07T13:49:15.225Z,16.40
2023-04-07T13:52:01.232Z,15.90
2023-04-07T13:54:48.246Z,16.20
2023-04-07T13:57:34.380Z,15.50
2023-04-07T14:00:20.719Z,15.80
2023-04-07T14:03:08.254Z,16.30
2023-04-07T14:05:54.583Z,16.60
2023-04-07T14:08:40.504Z,16.30
2023-04-07T14:11:27.300Z,16.40
2023-04-07T14:14:12.976Z,16.80
2023-04-07T14:16:59.703Z,16.90
2023-04-07T14:19:46.607Z,16.70
2023-04-07T14:22:32.314Z,16.20
2023-04-07T14:25:18.635Z,16.20
2023-04-07T14:28:05.973Z,15.80
2023-04-07T14:30:51.938Z,15.40
2023-04-07T14:33:38.374Z,14.70
2023-04-07T14:36:24.840Z,14.60
2023-04-07T14:39:10.806Z,15.00
2023-04-07T14:41:57.108Z,15.10
2023-04-07T14:44:43.254Z,15.10
2023-04-07T14:47:29.429Z,15.10
2023-04-07T14:50:19.709Z,15.20
2023-04-07T14:53:06.846Z,15.50
2023-04-07T14:55:52.747Z,15.00
2023-04-07T14:58:39.339Z,14.30
2023-04-07T15:01:25.214Z,13.80
2023-04-07T15:04:11.088Z,13.70
2023-04-07T15:06:57.417Z,13.50
2023-04-07T15:09:43.630Z,13.30
2023-04-07T15:12:31.502Z,13.10
2023-04-07T15:15:17.749Z,13.00
2023-04-07T15:18:04.268Z,13.00
2023-04-07T15:20:50.456Z,12.90
2023-04-07T15:23:38.356Z,12.80
2023-04-07T15:26:24.188Z,12.80
2023-04-07T15:29:10.145Z,12.70
2023-04-07T15:31:56.341Z,12.50
2023-04-07T15:34:42.728Z,12.50
2023-04-07T15:37:28.555Z,12.30
2023-04-07T15:40:14.939Z,12.20
2023-04-07T15:43:01.322Z,12.10
2023-04-07T15:45:48.303Z,12.00
2023-04-07T15:48:34.646Z,11.90
2023-04-07T15:51:20.678Z,12.20
2023-04-07T15:54:06.878Z,12.30
2023-04-07T15:56:53.309Z,12.30
2023-04-07T15:59:39.710Z,12.40
2023-04-07T16:02:26.074Z,12.50
2023-04-07T16:05:12.241Z,12.60
2023-04-07T16:07:58.720Z,12.50
2023-04-07T16:10:44.678Z,12.50
2023-04-07T16:13:31.218Z,12.50
2023-04-07T16:16:19.373Z,12.30
2023-04-07T16:19:05.673Z,12.20
2023-04-07T16:21:51.956Z,12.40
2023-04-07T16:24:37.712Z,12.60
2023-04-07T16:27:23.739Z,12.70
2023-04-07T16:30:11.271Z,12.60
2023-04-07T16:32:57.410Z,12.50
2023-04-07T16:35:43.509Z,12.50
2023-04-07T16:38:29.695Z,12.60
2023-04-07T16:41:15.759Z,12.50
2023-04-07T16:44:01.599Z,12.50
2023-04-07T16:46:47.668Z,12.50
2023-04-07T16:49:33.869Z,12.40
2023-04-07T16:52:20.736Z,12.60
2023-04-07T16:55:07.016Z,12.40
2023-04-07T16:57:53.032Z,12.40
2023-04-07T17:00:39.576Z,12.60
2023-04-07T17:03:25.619Z,12.50
2023-04-07T17:06:12.046Z,12.70
2023-04-07T17:08:58.359Z,12.80
2023-04-07T17:11:44.820Z,12.80
2023-04-07T17:14:31.084Z,12.90
2023-04-07T17:17:17.277Z,12.70
2023-04-07T17:20:04.796Z,12.70
2023-04-07T17:22:51.738Z,12.60
2023-04-07T17:25:37.947Z,12.30
2023-04-07T17:28:23.725Z,12.20
2023-04-07T17:31:13.627Z,12.40
2023-04-07T17:34:00.678Z,12.30
2023-04-07T17:36:46.715Z,12.40
2023-04-07T17:39:32.733Z,12.20
2023-04-07T17:42:18.732Z,12.20
2023-04-07T17:45:04.551Z,12.10
2023-04-07T17:47:50.206Z,12.30
2023-04-07T17:50:36.117Z,12.60
2023-04-07T17:53:21.798Z,12.90
2023-04-07T17:56:09.423Z,13.10
2023-04-07T17:58:55.510Z,13.20
2023-04-07T18:01:41.809Z,13.20
2023-04-07T18:04:27.928Z,13.20
2023-04-07T18:07:15.007Z,13.10
2023-04-07T18:10:01.501Z,12.80
2023-04-07T18:12:47.297Z,12.80
2023-04-07T18:15:34.108Z,12.60
2023-04-07T18:18:20.744Z,12.70
2023-04-07T18:21:07.363Z,11.90
2023-04-07T18:23:52.999Z,11.50
2023-04-07T18:26:40.264Z,11.60
2023-04-07T18:29:26.148Z,12.10
2023-04-07T18:32:12.103Z,12.40
2023-04-07T18:34:58.346Z,12.60
2023-04-07T18:37:44.779Z,12.40
2023-04-07T18:40:33.309Z,12.20
2023-04-07T18:43:19.686Z,12.40
2023-04-07T18:46:06.364Z,12.60
2023-04-07T18:48:52.218Z,12.50
2023-04-07T18:51:39.151Z,12.50
2023-04-07T18:54:27.196Z,12.20
2023-04-07T18:57:13.315Z,12.20
2023-04-07T18:59:59.752Z,12.30
2023-04-07T19:02:45.922Z,12.40
2023-04-07T19:05:31.929Z,12.50
2023-04-07T19:08:18.136Z,12.60
2023-04-07T19:11:04.923Z,12.70
2023-04-07T19:13:52.355Z,12.90
2023-04-07T19:16:38.470Z,12.70
2023-04-07T19:19:24.273Z,12.80
2023-04-07T19:22:10.008Z,12.80
2023-04-07T19:24:56.506Z,12.70
2023-04-07T19:27:42.814Z,12.70
2023-04-07T19:30:28.690Z,12.60
2023-04-07T19:33:14.756Z,12.70
2023-04-07T19:36:00.757Z,12.80
2023-04-07T19:38:47.096Z,12.70
2023-04-07T19:41:33.121Z,12.80
2023-04-07T19:44:19.355Z,12.90
2023-04-07T19:47:06.990Z,13.00
2023-04-07T19:49:53.192Z,13.00
2023-04-07T19:52:39.357Z,12.90
2023-04-07T19:55:26.068Z,12.60
2023-04-07T19:58:12.705Z,12.10
2023-04-07T20:00:58.612Z,12.30
2023-04-07T20:03:45.578Z,12.60
2023-04-07T20:06:40.551Z,12.70
2023-04-07T20:09:28.160Z,12.70
2023-04-07T20:12:14.953Z,12.60
2023-04-07T20:15:01.232Z,12.60
2023-04-07T20:17:48.252Z,12.70
2023-04-07T20:20:34.566Z,12.80
2023-04-07T20:23:22.253Z,12.80
2023-04-07T20:26:09.754Z,12.90
2023-04-07T20:28:55.737Z,12.80
2023-04-07T20:31:42.234Z,12.50
2023-04-07T20:34:28.500Z,12.30
2023-04-07T20:37:14.934Z,12.10
2023-04-07T20:40:01.462Z,10.10
2023-04-07T20:42:47.665Z,11.80
2023-04-07T20:45:34.228Z,11.80
2023-04-07T20:48:29.067Z,11.90
2023-04-07T20:51:16.258Z,12.30
2023-04-07T20:54:02.866Z,12.40
2023-04-07T20:56:49.180Z,12.20
2023-04-07T20:59:35.786Z,12.30
2023-04-07T21:02:22.339Z,12.30
2023-04-07T21:05:08.943Z,12.10
2023-04-07T21:07:54.454Z,12.10
2023-04-07T21:10:41.476Z,12.30
2023-04-07T21:13:29.159Z,12.40
2023-04-07T21:16:15.136Z,12.30
2023-04-07T21:19:03.571Z,12.50
2023-04-07T21:21:49.714Z,12.50
2023-04-07T21:24:35.889Z,12.50
2023-04-07T21:27:21.595Z,14.20
2023-04-07T21:30:08.693Z,12.40
2023-04-07T21:32:55.295Z,12.50
2023-04-07T21:35:41.963Z,12.50
2023-04-07T21:38:28.713Z,12.60
2023-04-07T21:41:14.549Z,12.60
2023-04-07T21:44:01.127Z,12.50
2023-04-07T21:46:48.003Z,12.60
2023-04-07T21:49:34.289Z,12.50
2023-04-07T21:52:20.802Z,12.60
2023-04-07T21:55:08.013Z,12.50
2023-04-07T21:57:54.094Z,12.50
2023-04-07T22:00:40.686Z,12.20
2023-04-07T22:03:27.330Z,12.40
2023-04-07T22:06:14.221Z,12.50
2023-04-07T22:09:02.082Z,12.40
2023-04-07T22:11:48.745Z,12.30
2023-04-07T22:14:34.605Z,12.40
2023-04-07T22:17:21.565Z,12.30
2023-04-07T22:20:09.841Z,12.40
2023-04-07T22:22:57.902Z,12.20
2023-04-07T22:25:44.245Z,12.00
2023-04-07T22:28:30.675Z,12.20
2023-04-07T22:31:16.630Z,12.30
2023-04-07T22:34:03.316Z,12.30
2023-04-07T22:36:49.587Z,12.30
2023-04-07T22:39:36.055Z,12.30
2023-04-07T22:42:22.701Z,12.10
2023-04-07T22:45:09.372Z,12.00
2023-04-07T22:47:55.109Z,12.00
2023-04-07T22:50:41.535Z,12.10
2023-04-07T22:53:27.362Z,12.10
2023-04-07T22:56:13.737Z,12.70
2023-04-07T22:59:05.783Z,11.80
2023-04-07T23:01:52.172Z,11.90
2023-04-07T23:04:38.154Z,11.80
2023-04-07T23:07:24.174Z,11.70
2023-04-07T23:10:10.508Z,11.40
2023-04-07T23:12:56.530Z,11.20
2023-04-07T23:15:43.004Z,11.20
2023-04-07T23:18:29.270Z,11.40
2023-04-07T23:21:15.823Z,11.40
2023-04-07T23:24:01.858Z,11.40
2023-04-07T23:26:47.958Z,11.30
2023-04-07T23:29:34.147Z,11.30
2023-04-07T23:32:20.310Z,11.40
2023-04-07T23:35:07.507Z,11.70
2023-04-07T23:37:53.728Z,11.90
2023-04-07T23:40:39.834Z,11.70
2023-04-07T23:43:25.388Z,11.60
2023-04-07T23:46:11.636Z,11.50
2023-04-07T23:48:58.038Z,11.40
2023-04-07T23:51:44.293Z,11.60
2023-04-07T23:54:30.114Z,12.30
2023-04-07T23:57:16.203Z,11.50
